AirBox status report


DeploymentNumber of DevicesDetailAvg. TemperatureAvg. HumidityAvg. PM2.5Version
1 Edimax AirBox (Taipei) 21.29% (33/155) [HTML] [JSON] [Dataset A]32.52℃ 86.73% 38.39 μg/m3 2018-04-22T04:22:10Z
2 Edimax AirBox (New Taipei) 44.97% (134/298) [HTML] [JSON] [Dataset B]31.43℃ 83.57% 37.32 μg/m3 2018-04-22T04:22:10Z
3 Edimax AirBox (Taoyuan) 38.72% (91/235) [HTML] [JSON] [Dataset A]31.91℃ 68.27% 51.05 μg/m3 2018-04-22T04:22:10Z
4 Edimax AirBox (Taichung) 79.74% (185/232) [HTML] [JSON] [Dataset B]31.73℃ 83.08% 55.68 μg/m3 2018-04-22T04:22:10Z
5 Edimax AirBox (Tainan) 64.95% (139/214) [HTML] [JSON] [Dataset B]33.98℃ 82.13% 43.92 μg/m3 2018-04-22T04:22:10Z
6 Edimax AirBox (Kaohsiung) 73.55% (178/242) [HTML] [JSON] [Dataset B]33.4℃ 80.08% 41.06 μg/m3 2018-04-22T04:22:10Z
7 Edimax AirBox (LASS) 10.81% (8/74) [HTML] [JSON] [Dataset A]33.7℃ 77.25% 40.13 μg/m3 2018-04-22T04:22:10Z
8 Edimax AirBox (TaichungZero) 68.92% (102/148) [HTML] [JSON] [Dataset A]33.6℃ 76.89% 56.12 μg/m3 2018-04-22T04:22:10Z
9 Edimax AirBox (TaoyuanFirst) 66.67% (18/27) [HTML] [JSON] [Dataset A]33.41℃ 72.11% 48.72 μg/m3 2018-04-22T04:22:10Z
10 Edimax AirBox (other) 100% (833/833) [HTML] [JSON] [Dataset A]31.75℃ 83% 13 μg/m3 2018-04-22T04:22:10Z
11 LASS AirBox (Hsinchu) 50% (25/50) [HTML] [JSON] [Dataset A]32.37℃ 74.6% 67.96 μg/m3 2018-04-22T04:22:10Z
12 LASS AirBox (Yunlin) 53.89% (104/193) [HTML] [JSON] [Dataset A]33.21℃ 70.56% 55.03 μg/m3 2018-04-22T04:22:10Z
13 LASS AirBox (Chiayi) 49.02% (25/51) [HTML] [JSON] [Dataset A]33.29℃ 66.04% 49.32 μg/m3 2018-04-22T04:22:10Z
14 LASS AirBox (Chiayi County) 43.89% (79/180) [HTML] [JSON] [Dataset A]32.5℃ 60.37% 49.59 μg/m3 2018-04-22T04:22:10Z
15 LASS AirBox (Kinmen) 41.67% (10/24) [HTML] [JSON] [Dataset A]30.27℃ 73.7% 66.2 μg/m3 2018-04-22T04:22:10Z
16 LASS (LASS FT) 100% (87/87) [HTML] [JSON] [Dataset C]26.58℃ 55.77% 44.39 μg/m3 2018-04-22T04:22:10Z
17 LASS (LASS4U) 100% (1/1) [HTML] [JSON] [Dataset D]28.44℃ 62.75% 26 μg/m3 2018-04-22T04:22:11Z
18 MAPS (LoRa) 0% (0/5) [HTML] [JSON] [Dataset E]0℃ 0% 0 μg/m3 2018-04-22T04:22:11Z
19 MAPS (WiFi) 6.9% (6/87) [HTML] [JSON] [Dataset E]-43.47℃ 21.35% 51.33 μg/m3 2018-04-22T04:22:11Z
20 MAPS (other) NAN% (0/0) [HTML] [JSON] [Dataset E]0℃ 0% 0 μg/m3 2018-04-22T04:22:11Z
21 ASLUNG 100% (29/29) [HTML] [JSON] [Dataset F]28.01℃ 52.9% 46.24 μg/m3 2018-04-22T04:22:11Z
22 *AirQ 100% (133/133) [HTML] [JSON] [Dataset J]0℃ 0% 49.73 μg/m3 2018-04-22T04:22:11Z
23 *Asus AirBox 100% (86/86) [HTML] [JSON] [Dataset G]31.6℃ 73.39% 46.44 μg/m3 2018-04-22T04:22:11Z
24 *gov Indie NAN% (0/0) [HTML] [JSON] [Dataset H]0℃ 0% 0 μg/m3 2018-04-22T04:22:11Z
25 *ProbeCube 100% (5/5) [HTML] [JSON] [Dataset I]28.3℃ 54.74% 30.6 μg/m3 2018-04-22T04:22:11Z
26 Total 68.19% (2311/3389)

Resource:

Note: